createdAt,value
2023-12-21T00:02:12.878Z,22.70
2023-12-21T00:04:40.562Z,22.70
2023-12-21T00:07:08.492Z,22.70
2023-12-21T00:09:35.927Z,22.70
2023-12-21T00:12:04.238Z,22.70
2023-12-21T00:14:32.047Z,22.70
2023-12-21T00:17:02.573Z,22.70
2023-12-21T00:19:30.020Z,22.70
2023-12-21T00:21:57.641Z,22.70
2023-12-21T00:24:25.106Z,22.70
2023-12-21T00:26:53.796Z,22.60
2023-12-21T00:29:21.079Z,22.70
2023-12-21T00:31:49.052Z,22.60
2023-12-21T00:34:17.528Z,22.60
2023-12-21T00:36:46.697Z,22.60
2023-12-21T00:39:13.869Z,22.60
2023-12-21T00:41:41.552Z,22.70
2023-12-21T00:44:08.879Z,22.60
2023-12-21T00:46:36.221Z,22.60
2023-12-21T00:49:04.339Z,22.60
2023-12-21T00:51:31.578Z,22.60
2023-12-21T00:54:01.768Z,22.60
2023-12-21T00:56:28.900Z,22.60
2023-12-21T00:59:00.578Z,22.60
2023-12-21T01:01:28.525Z,22.50
2023-12-21T01:03:59.096Z,22.60
2023-12-21T01:06:26.282Z,22.60
2023-12-21T01:08:53.842Z,22.60
2023-12-21T01:11:21.786Z,22.60
2023-12-21T01:13:49.346Z,22.60
2023-12-21T01:16:17.554Z,22.60
2023-12-21T01:18:45.449Z,22.50
2023-12-21T01:21:12.840Z,22.50
2023-12-21T01:23:40.013Z,22.50
2023-12-21T01:26:07.284Z,22.50
2023-12-21T01:28:34.677Z,22.50
2023-12-21T01:31:02.367Z,22.50
2023-12-21T01:33:29.807Z,22.50
2023-12-21T01:35:57.339Z,22.50
2023-12-21T01:38:25.755Z,22.50
2023-12-21T01:40:53.183Z,22.50
2023-12-21T01:43:22.574Z,22.50
2023-12-21T01:45:50.144Z,22.50
2023-12-21T01:48:18.176Z,22.50
2023-12-21T01:50:46.450Z,22.50
2023-12-21T01:53:16.514Z,22.50
2023-12-21T01:55:46.160Z,22.40
2023-12-21T01:58:13.978Z,22.20
2023-12-21T02:00:43.417Z,22.40
2023-12-21T02:03:10.959Z,22.40
2023-12-21T02:05:38.380Z,22.40
2023-12-21T02:08:06.043Z,22.40
2023-12-21T02:10:34.162Z,22.50
2023-12-21T02:13:01.310Z,22.40
2023-12-21T02:15:28.721Z,22.40
2023-12-21T02:17:58.055Z,22.40
2023-12-21T02:20:26.409Z,22.40
2023-12-21T02:22:55.398Z,22.40
2023-12-21T02:25:24.125Z,22.40
2023-12-21T02:27:52.175Z,22.40
2023-12-21T02:30:19.500Z,22.40
2023-12-21T02:32:46.932Z,22.40
2023-12-21T02:35:14.674Z,22.40
2023-12-21T02:37:41.985Z,22.40
2023-12-21T02:40:09.870Z,22.40
2023-12-21T02:42:37.253Z,22.40
2023-12-21T02:45:04.807Z,22.40
2023-12-21T02:47:32.004Z,22.40
2023-12-21T02:49:59.339Z,22.40
2023-12-21T02:52:26.665Z,22.40
2023-12-21T02:54:53.921Z,22.40
2023-12-21T02:57:21.846Z,22.30
2023-12-21T02:59:50.363Z,22.40
2023-12-21T03:02:17.755Z,22.40
2023-12-21T03:04:44.939Z,22.40
2023-12-21T03:07:12.129Z,22.40
2023-12-21T03:09:40.129Z,22.40
2023-12-21T03:12:08.287Z,22.40
2023-12-21T03:14:35.415Z,22.30
2023-12-21T03:17:02.596Z,22.30
2023-12-21T03:19:29.937Z,22.30
2023-12-21T03:21:58.054Z,22.30
2023-12-21T03:24:25.241Z,22.30
2023-12-21T03:26:54.930Z,22.30
2023-12-21T03:29:22.051Z,22.30
2023-12-21T03:31:58.615Z,22.30
2023-12-21T03:34:35.373Z,22.30
2023-12-21T03:37:02.547Z,22.30
2023-12-21T03:39:32.375Z,22.30
2023-12-21T03:42:00.791Z,22.30
2023-12-21T03:44:27.993Z,22.30
2023-12-21T03:46:55.376Z,22.30
2023-12-21T03:49:22.782Z,22.20
2023-12-21T03:51:49.982Z,22.20
2023-12-21T03:54:17.083Z,22.20
2023-12-21T03:56:44.396Z,22.20
2023-12-21T03:59:12.773Z,22.30
2023-12-21T04:01:40.149Z,22.20
2023-12-21T04:04:07.472Z,22.30
2023-12-21T04:06:34.901Z,22.20
2023-12-21T04:09:02.018Z,22.30
2023-12-21T04:11:29.787Z,22.20
2023-12-21T04:13:56.941Z,22.20
2023-12-21T04:16:24.145Z,22.20
2023-12-21T04:18:51.482Z,22.20
2023-12-21T04:21:18.753Z,22.20
2023-12-21T04:23:46.689Z,22.20
2023-12-21T04:26:26.626Z,22.20
2023-12-21T04:28:54.424Z,22.20
2023-12-21T04:31:23.178Z,22.20
2023-12-21T04:33:53.319Z,22.20
2023-12-21T04:36:25.372Z,22.20
2023-12-21T04:38:54.213Z,22.20
2023-12-21T04:41:21.761Z,22.20
2023-12-21T04:43:48.878Z,22.20
2023-12-21T04:46:16.059Z,22.20
2023-12-21T04:48:43.774Z,22.10
2023-12-21T04:51:18.501Z,22.10
2023-12-21T04:53:46.136Z,22.20
2023-12-21T04:56:13.488Z,22.20
2023-12-21T04:58:42.154Z,22.10
2023-12-21T05:01:12.548Z,22.10
2023-12-21T05:03:40.039Z,22.10
2023-12-21T05:06:07.475Z,22.10
2023-12-21T05:08:35.977Z,22.10
2023-12-21T05:11:03.790Z,22.10
2023-12-21T05:13:31.068Z,22.10
2023-12-21T05:15:58.356Z,22.10
2023-12-21T05:18:29.146Z,22.10
2023-12-21T05:20:56.292Z,22.10
2023-12-21T05:23:23.585Z,22.10
2023-12-21T05:25:51.364Z,22.10
2023-12-21T05:28:18.552Z,22.10
2023-12-21T05:30:45.919Z,22.10
2023-12-21T05:33:13.179Z,22.10
2023-12-21T05:35:40.372Z,22.10
2023-12-21T05:38:07.469Z,22.10
2023-12-21T05:40:34.597Z,22.00
2023-12-21T05:43:01.773Z,22.00
2023-12-21T05:45:28.906Z,22.00
2023-12-21T05:48:00.113Z,22.00
2023-12-21T05:50:27.738Z,22.10
2023-12-21T05:52:55.190Z,22.00
2023-12-21T05:55:22.566Z,22.00
2023-12-21T05:57:49.715Z,22.10
2023-12-21T06:00:17.410Z,22.00
2023-12-21T06:02:44.804Z,22.00
2023-12-21T06:05:12.589Z,22.00
2023-12-21T06:07:39.722Z,22.00
2023-12-21T06:10:10.890Z,22.00
2023-12-21T06:12:38.219Z,22.00
2023-12-21T06:15:06.070Z,22.10
2023-12-21T06:17:33.318Z,22.10
2023-12-21T06:20:00.722Z,22.20
2023-12-21T06:22:28.538Z,22.40
2023-12-21T06:24:55.760Z,22.40
2023-12-21T06:27:23.281Z,22.70
2023-12-21T06:29:51.650Z,22.80
2023-12-21T06:32:18.835Z,23.00
2023-12-21T06:34:46.472Z,23.20
2023-12-21T06:37:13.676Z,23.30
2023-12-21T06:39:40.743Z,23.50
2023-12-21T06:42:08.203Z,23.70
2023-12-21T06:44:35.400Z,23.80
2023-12-21T06:47:02.438Z,24.00
2023-12-21T06:49:29.952Z,24.10
2023-12-21T06:51:57.176Z,24.30
2023-12-21T06:54:24.296Z,24.40
2023-12-21T06:56:51.418Z,24.50
2023-12-21T06:59:18.663Z,24.70
2023-12-21T07:01:45.856Z,24.80
2023-12-21T07:04:13.213Z,24.90
2023-12-21T07:06:40.321Z,25.00
2023-12-21T07:09:07.771Z,25.20
2023-12-21T07:11:34.886Z,25.20
2023-12-21T07:18:03.721Z,25.40
2023-12-21T07:20:31.673Z,25.50
2023-12-21T07:22:59.129Z,25.60
2023-12-21T07:25:26.334Z,25.70
2023-12-21T07:27:55.110Z,25.70
2023-12-21T07:30:23.362Z,25.80
2023-12-21T07:32:50.567Z,25.80
2023-12-21T07:35:17.950Z,25.80
2023-12-21T07:37:45.499Z,25.90
2023-12-21T07:40:13.083Z,25.90
2023-12-21T07:42:40.128Z,25.90
2023-12-21T07:45:08.022Z,25.40
2023-12-21T07:47:36.684Z,25.90
2023-12-21T07:50:03.955Z,25.90
2023-12-21T07:52:31.314Z,25.90
2023-12-21T07:54:58.408Z,25.90
2023-12-21T07:57:25.552Z,25.90
2023-12-21T07:59:55.522Z,25.90
2023-12-21T08:02:22.645Z,25.90
2023-12-21T08:04:49.896Z,25.90
2023-12-21T08:07:17.015Z,25.90
2023-12-21T08:09:44.150Z,25.80
2023-12-21T08:12:11.381Z,25.90
2023-12-21T08:14:41.547Z,25.00
2023-12-21T08:17:10.997Z,25.90
2023-12-21T08:19:39.005Z,25.90
2023-12-21T08:22:07.902Z,26.00
2023-12-21T08:24:35.069Z,26.00
2023-12-21T08:27:02.322Z,26.00
2023-12-21T08:29:29.634Z,26.10
2023-12-21T08:31:56.782Z,26.00
2023-12-21T08:34:24.110Z,26.10
2023-12-21T08:36:51.606Z,26.10
2023-12-21T08:39:18.763Z,26.10
2023-12-21T08:41:45.883Z,26.10
2023-12-21T08:44:13.068Z,26.20
2023-12-21T08:46:44.825Z,26.10
2023-12-21T08:49:16.828Z,26.20
2023-12-21T08:51:43.934Z,26.20
2023-12-21T08:54:11.036Z,26.30
2023-12-21T08:56:47.022Z,26.30
2023-12-21T08:59:14.106Z,26.30
2023-12-21T09:01:41.384Z,26.30
2023-12-21T09:04:08.762Z,26.30
2023-12-21T09:06:36.060Z,26.30
2023-12-21T09:09:05.358Z,26.40
2023-12-21T09:11:32.898Z,26.30
2023-12-21T09:14:00.003Z,26.40
2023-12-21T09:16:27.113Z,26.30
2023-12-21T09:18:56.374Z,26.40
2023-12-21T09:21:23.775Z,26.30
2023-12-21T09:23:51.232Z,26.40
2023-12-21T09:26:18.823Z,26.40
2023-12-21T09:28:46.673Z,26.40
2023-12-21T09:31:14.221Z,26.40
2023-12-21T09:33:41.963Z,26.40
2023-12-21T09:36:10.792Z,26.40
2023-12-21T09:38:38.409Z,26.40
2023-12-21T09:41:08.565Z,26.30
2023-12-21T09:43:42.446Z,26.30
2023-12-21T09:46:12.019Z,26.40
2023-12-21T09:48:41.754Z,26.40
2023-12-21T09:51:11.320Z,26.30
2023-12-21T09:53:40.812Z,26.30
2023-12-21T09:56:09.324Z,26.30
2023-12-21T09:58:37.585Z,26.30
2023-12-21T10:01:05.189Z,26.30
2023-12-21T10:03:34.185Z,26.30
2023-12-21T10:06:04.761Z,26.30
2023-12-21T10:08:34.817Z,26.30
2023-12-21T10:11:07.884Z,26.30
2023-12-21T10:13:38.894Z,26.30
2023-12-21T10:16:07.131Z,26.30
2023-12-21T10:18:36.193Z,26.30
2023-12-21T10:21:03.939Z,26.30
2023-12-21T10:23:31.843Z,26.30
2023-12-21T10:25:59.898Z,26.30
2023-12-21T10:28:27.144Z,26.30
2023-12-21T10:30:56.602Z,26.30
2023-12-21T10:33:26.562Z,26.30
2023-12-21T10:35:53.976Z,26.30
2023-12-21T10:38:23.999Z,26.30
2023-12-21T10:40:51.590Z,26.30
2023-12-21T10:43:20.074Z,26.30
2023-12-21T10:45:51.544Z,26.30
2023-12-21T10:48:26.066Z,26.30
2023-12-21T10:50:55.051Z,26.30
2023-12-21T10:53:26.771Z,26.30
2023-12-21T10:55:58.393Z,26.40
2023-12-21T10:58:28.187Z,26.30
2023-12-21T11:01:03.846Z,26.30
2023-12-21T11:03:35.989Z,26.30
2023-12-21T11:06:05.593Z,26.40
2023-12-21T11:08:34.520Z,26.40
2023-12-21T11:11:02.077Z,26.40
2023-12-21T11:13:29.202Z,26.40
2023-12-21T11:15:58.253Z,26.40
2023-12-21T11:18:26.975Z,26.40
2023-12-21T11:21:00.924Z,26.40
2023-12-21T11:23:28.914Z,26.40
2023-12-21T11:26:00.457Z,26.40
2023-12-21T11:28:30.276Z,26.40
2023-12-21T11:30:58.043Z,26.40
2023-12-21T11:33:32.686Z,26.30
2023-12-21T11:36:00.550Z,26.40
2023-12-21T11:38:52.874Z,26.30
2023-12-21T11:41:25.885Z,26.40
2023-12-21T11:44:13.899Z,26.40
2023-12-21T11:46:43.053Z,26.40
2023-12-21T11:49:25.906Z,26.40
2023-12-21T11:51:54.581Z,26.40
2023-12-21T11:54:26.567Z,26.40
2023-12-21T11:56:56.518Z,26.40
2023-12-21T11:59:28.726Z,26.40
2023-12-21T12:01:56.161Z,26.50
2023-12-21T12:04:23.594Z,26.40
2023-12-21T12:06:53.237Z,26.50
2023-12-21T12:09:23.972Z,26.50
2023-12-21T12:11:52.687Z,26.50
2023-12-21T12:14:20.575Z,26.30
2023-12-21T12:16:48.157Z,26.30
2023-12-21T12:19:16.047Z,26.30
2023-12-21T12:21:43.654Z,26.30
2023-12-21T12:24:16.087Z,26.40
2023-12-21T12:26:43.847Z,26.40
2023-12-21T12:29:18.593Z,26.40
2023-12-21T12:31:48.870Z,26.40
2023-12-21T12:34:18.377Z,26.40
2023-12-21T12:36:46.205Z,26.40
2023-12-21T12:39:13.760Z,26.40
2023-12-21T12:41:41.045Z,26.30
2023-12-21T12:44:10.378Z,26.40
2023-12-21T12:46:37.978Z,26.40
2023-12-21T12:49:05.461Z,26.30
2023-12-21T12:51:33.346Z,26.30
2023-12-21T12:54:01.753Z,26.40
2023-12-21T12:56:28.992Z,26.30
2023-12-21T12:58:59.647Z,26.30
2023-12-21T13:01:29.241Z,26.30
2023-12-21T13:04:00.718Z,26.30
2023-12-21T13:06:30.231Z,26.30
2023-12-21T13:08:58.234Z,26.30
2023-12-21T13:11:25.893Z,26.30
2023-12-21T13:13:53.684Z,26.30
2023-12-21T13:16:21.249Z,26.30
2023-12-21T13:18:49.201Z,26.30
2023-12-21T13:21:17.294Z,26.30
2023-12-21T13:23:44.781Z,26.40
2023-12-21T13:26:14.246Z,26.40
2023-12-21T13:28:45.863Z,26.40
2023-12-21T13:31:15.764Z,26.50
2023-12-21T13:33:44.058Z,26.50
2023-12-21T13:36:11.696Z,26.60
2023-12-21T13:38:42.007Z,26.60
2023-12-21T13:41:10.703Z,26.60
2023-12-21T13:43:40.708Z,26.70
2023-12-21T13:46:14.410Z,26.70
2023-12-21T13:48:41.705Z,26.60
2023-12-21T13:51:09.146Z,26.60
2023-12-21T13:53:37.169Z,26.60
2023-12-21T13:56:05.211Z,26.60
2023-12-21T13:58:32.845Z,26.60
2023-12-21T14:01:03.400Z,26.60
2023-12-21T14:03:31.442Z,26.60
2023-12-21T14:05:59.350Z,26.50
2023-12-21T14:08:26.595Z,26.50
2023-12-21T14:10:53.993Z,26.50
2023-12-21T14:13:21.465Z,26.50
2023-12-21T14:15:48.701Z,26.50
2023-12-21T14:18:18.812Z,26.50
2023-12-21T14:20:49.361Z,26.50
2023-12-21T14:23:20.679Z,26.50
2023-12-21T14:25:52.261Z,26.50
2023-12-21T14:28:20.194Z,26.50
2023-12-21T14:30:51.764Z,26.50
2023-12-21T14:33:19.639Z,26.90
2023-12-21T14:35:49.579Z,26.50
2023-12-21T14:38:17.406Z,26.50
2023-12-21T14:40:46.678Z,26.60
2023-12-21T14:43:14.791Z,26.50
2023-12-21T14:45:42.112Z,26.60
2023-12-21T14:48:09.736Z,26.60
2023-12-21T14:50:40.070Z,26.60
2023-12-21T14:53:07.673Z,26.60
2023-12-21T14:55:35.725Z,26.60
2023-12-21T14:58:03.399Z,26.60
2023-12-21T15:00:33.436Z,26.60
2023-12-21T15:03:02.683Z,26.60
2023-12-21T15:05:30.192Z,26.60
2023-12-21T15:07:57.868Z,26.60
2023-12-21T15:10:27.753Z,26.60
2023-12-21T15:12:58.199Z,26.60
2023-12-21T15:15:25.818Z,26.60
2023-12-21T15:17:53.793Z,26.60
2023-12-21T15:20:21.479Z,26.60
2023-12-21T15:22:49.077Z,26.60
2023-12-21T15:25:16.811Z,26.60
2023-12-21T15:27:44.782Z,26.60
2023-12-21T15:30:12.930Z,26.50
2023-12-21T15:32:43.804Z,26.50
2023-12-21T15:35:12.794Z,26.50
2023-12-21T15:37:40.060Z,26.50
2023-12-21T15:40:07.988Z,26.50
2023-12-21T15:42:35.414Z,26.50
2023-12-21T15:45:02.871Z,26.50
2023-12-21T15:47:30.967Z,26.50
2023-12-21T15:49:58.483Z,26.40
2023-12-21T15:52:25.939Z,26.40
2023-12-21T15:54:53.405Z,26.40
2023-12-21T15:57:20.799Z,26.40
2023-12-21T15:59:48.304Z,26.30
2023-12-21T16:02:16.496Z,26.30
2023-12-21T16:04:43.891Z,26.30
2023-12-21T16:07:12.739Z,26.30
2023-12-21T16:09:40.295Z,26.30
2023-12-21T16:12:08.172Z,26.20
2023-12-21T16:14:36.014Z,26.20
2023-12-21T16:17:07.030Z,26.20
2023-12-21T16:19:35.647Z,26.20
2023-12-21T16:22:04.940Z,26.20
2023-12-21T16:24:33.756Z,26.20
2023-12-21T16:27:01.264Z,26.20
2023-12-21T16:29:29.263Z,26.10
2023-12-21T16:31:57.211Z,26.10
2023-12-21T16:34:25.068Z,26.10
2023-12-21T16:36:53.389Z,26.10
2023-12-21T16:39:21.171Z,26.10
2023-12-21T16:41:49.085Z,26.00
2023-12-21T16:44:16.678Z,26.10
2023-12-21T16:46:45.386Z,26.10
2023-12-21T16:49:13.595Z,26.00
2023-12-21T16:51:40.751Z,26.00
2023-12-21T16:54:08.960Z,26.00
2023-12-21T16:56:38.056Z,26.00
2023-12-21T16:59:09.203Z,26.00
2023-12-21T17:01:37.350Z,25.90
2023-12-21T17:04:05.532Z,25.90
2023-12-21T17:06:33.615Z,26.00
2023-12-21T17:09:01.480Z,26.00
2023-12-21T17:11:29.066Z,26.00
2023-12-21T17:13:58.544Z,26.00
2023-12-21T17:16:25.848Z,26.00
2023-12-21T17:18:54.965Z,26.00
2023-12-21T17:21:23.266Z,26.00
2023-12-21T17:23:50.626Z,26.00
2023-12-21T17:26:18.778Z,26.00
2023-12-21T17:28:46.425Z,26.00
2023-12-21T17:31:14.063Z,25.90
2023-12-21T17:33:41.554Z,25.90
2023-12-21T17:36:09.364Z,25.90
2023-12-21T17:38:37.143Z,25.90
2023-12-21T17:41:05.449Z,25.80
2023-12-21T17:43:33.128Z,25.90
2023-12-21T17:46:02.510Z,25.80
2023-12-21T17:48:30.128Z,25.80
2023-12-21T17:50:57.810Z,25.80
2023-12-21T17:53:25.665Z,25.70
2023-12-21T17:55:53.351Z,25.70
2023-12-21T17:58:22.058Z,25.60
2023-12-21T18:00:49.578Z,25.60
2023-12-21T18:03:17.043Z,25.50
2023-12-21T18:05:45.785Z,25.50
2023-12-21T18:08:14.919Z,25.40
2023-12-21T18:10:42.437Z,25.40
2023-12-21T18:13:09.921Z,25.40
2023-12-21T18:15:38.593Z,25.30
2023-12-21T18:18:06.096Z,25.20
2023-12-21T18:20:33.743Z,25.20
2023-12-21T18:23:01.798Z,25.20
2023-12-21T18:25:29.601Z,25.10
2023-12-21T18:27:57.811Z,25.10
2023-12-21T18:30:25.349Z,25.10
2023-12-21T18:32:53.246Z,25.00
2023-12-21T18:35:21.354Z,24.90
2023-12-21T18:37:49.206Z,24.90
2023-12-21T18:40:17.331Z,24.90
2023-12-21T18:42:45.827Z,24.90
2023-12-21T18:45:13.319Z,24.80
2023-12-21T18:47:40.807Z,24.80
2023-12-21T18:50:09.767Z,24.70
2023-12-21T18:52:37.617Z,24.70
2023-12-21T18:55:05.529Z,24.70
2023-12-21T18:57:33.675Z,24.60
2023-12-21T19:00:02.649Z,24.60
2023-12-21T19:02:30.378Z,24.50
2023-12-21T19:04:58.402Z,24.50
2023-12-21T19:07:29.838Z,24.50
2023-12-21T19:09:57.465Z,24.40
2023-12-21T19:12:24.929Z,24.40
2023-12-21T19:14:52.560Z,24.40
2023-12-21T19:17:20.770Z,24.30
2023-12-21T19:19:48.661Z,24.30
2023-12-21T19:22:16.725Z,24.20
2023-12-21T19:24:44.569Z,24.20
2023-12-21T19:27:13.414Z,24.20
2023-12-21T19:29:41.171Z,24.20
2023-12-21T19:32:10.186Z,24.10
2023-12-21T19:34:40.151Z,24.10
2023-12-21T19:37:11.577Z,24.00
2023-12-21T19:39:39.515Z,24.00
2023-12-21T19:42:07.974Z,24.00
2023-12-21T19:44:39.144Z,23.90
2023-12-21T19:47:08.623Z,23.90
2023-12-21T19:49:38.219Z,23.90
2023-12-21T19:52:06.822Z,23.90
2023-12-21T19:54:34.769Z,23.80
2023-12-21T19:57:03.958Z,23.80
2023-12-21T19:59:31.552Z,23.80
2023-12-21T20:01:59.536Z,23.80
2023-12-21T20:04:28.029Z,23.70
2023-12-21T20:06:56.348Z,23.70
2023-12-21T20:09:24.012Z,23.70
2023-12-21T20:11:51.658Z,23.60
2023-12-21T20:14:20.789Z,23.60
2023-12-21T20:16:48.753Z,23.60
2023-12-21T20:19:17.686Z,23.60
2023-12-21T20:21:47.224Z,23.50
2023-12-21T20:24:20.245Z,23.50
2023-12-21T20:26:47.941Z,23.50
2023-12-21T20:29:16.829Z,23.50
2023-12-21T20:31:45.003Z,23.50
2023-12-21T20:34:13.900Z,23.40
2023-12-21T20:36:41.787Z,23.40
2023-12-21T20:39:09.706Z,23.40
2023-12-21T20:41:37.261Z,23.40
2023-12-21T20:44:05.577Z,23.40
2023-12-21T20:46:33.209Z,23.30
2023-12-21T20:49:01.136Z,23.30
2023-12-21T20:51:29.303Z,23.30
2023-12-21T20:53:59.536Z,23.30
2023-12-21T20:56:30.893Z,23.30
2023-12-21T20:58:58.426Z,23.20
2023-12-21T21:01:28.253Z,23.30
2023-12-21T21:03:56.471Z,23.20
2023-12-21T21:06:24.748Z,23.20
2023-12-21T21:08:52.427Z,23.20
2023-12-21T21:11:20.667Z,23.20
2023-12-21T21:13:51.350Z,23.20
2023-12-21T21:16:23.054Z,23.20
2023-12-21T21:18:50.953Z,23.20
2023-12-21T21:21:19.140Z,23.20
2023-12-21T21:23:46.802Z,23.20
2023-12-21T21:26:17.827Z,23.10
2023-12-21T21:28:45.731Z,23.10
2023-12-21T21:31:20.064Z,23.10
2023-12-21T21:33:49.267Z,23.10
2023-12-21T21:36:17.404Z,23.10
2023-12-21T21:38:45.327Z,23.10
2023-12-21T21:41:20.682Z,23.00
2023-12-21T21:43:49.758Z,23.10
2023-12-21T21:46:18.662Z,23.00
2023-12-21T21:48:46.729Z,23.10
2023-12-21T21:51:17.406Z,23.00
2023-12-21T21:53:46.333Z,23.00
2023-12-21T21:56:15.159Z,23.00
2023-12-21T21:58:42.547Z,23.00
2023-12-21T22:01:10.627Z,23.00
2023-12-21T22:03:38.542Z,22.90
2023-12-21T22:06:06.447Z,22.70
2023-12-21T22:08:34.302Z,22.90
2023-12-21T22:11:02.902Z,22.90
2023-12-21T22:13:31.595Z,22.90
2023-12-21T22:16:02.231Z,22.90
2023-12-21T22:18:30.045Z,22.90
2023-12-21T22:20:57.818Z,22.90
2023-12-21T22:23:27.542Z,22.90
2023-12-21T22:25:55.254Z,22.90
2023-12-21T22:28:24.613Z,22.80
2023-12-21T22:30:52.328Z,22.80
2023-12-21T22:33:20.238Z,22.80
2023-12-21T22:35:48.266Z,22.80
2023-12-21T22:38:16.266Z,22.80
2023-12-21T22:40:44.044Z,22.80
2023-12-21T22:43:13.245Z,22.80
2023-12-21T22:45:42.637Z,22.80
2023-12-21T22:48:12.669Z,22.80
2023-12-21T22:50:40.269Z,22.80
2023-12-21T22:53:07.863Z,22.70
2023-12-21T22:55:35.611Z,22.70
2023-12-21T22:58:02.975Z,22.70
2023-12-21T23:00:30.851Z,22.70
2023-12-21T23:02:59.486Z,22.70
2023-12-21T23:05:27.180Z,22.70
2023-12-21T23:07:54.964Z,22.70
2023-12-21T23:10:23.320Z,22.70
2023-12-21T23:12:51.115Z,22.70
2023-12-21T23:15:18.749Z,22.70
2023-12-21T23:17:46.593Z,22.70
2023-12-21T23:20:14.671Z,22.70
2023-12-21T23:22:42.296Z,22.60
2023-12-21T23:25:09.771Z,22.60
2023-12-21T23:27:37.027Z,22.60
2023-12-21T23:30:04.736Z,22.60
2023-12-21T23:32:31.996Z,22.60
2023-12-21T23:35:12.661Z,22.60
2023-12-21T23:37:48.626Z,22.60
2023-12-21T23:40:16.592Z,22.60
2023-12-21T23:42:44.132Z,22.60
2023-12-21T23:45:11.512Z,22.50
2023-12-21T23:47:39.194Z,22.40
2023-12-21T23:50:07.546Z,22.50
2023-12-21T23:52:35.018Z,22.50
2023-12-21T23:55:02.747Z,22.50
2023-12-21T23:57:30.004Z,22.50
2023-12-21T23:59:57.550Z,22.50
